INFORMACIÓN METAR y TAF
METAR FOR LEAS
ADDS - METARS form results

(0544 UTC 20 January 2020)
Data provider http://aviationweather.gov/metar/data/
 
METAR text: LEAS 200530Z 08009KT 030V110 9999 SCT035 SCT070 07/02 Q1036 TEMPO RA
Conditions at: LEAS (ASTURIAS/AVILES , ES) observed 0530 UTC 20 January 2020
Temperature: 7.0°C (45°F)
Dewpoint: 2.0°C (36°F) [RH = 70%]
Pressure (altimeter): 30.59 inches Hg (1036.0 mb)
Winds: from the E (80 degrees) at 10 MPH (9 knots; 4.6 m/s)
Visibility: 6 or more miles (10+ km)
Ceiling: at least 12,000 feet AGL
Clouds: scattered clouds at 3500 feet AGL
scattered clouds at 7000 feet AGL
Weather: no significant weather observed at this time

METAR text: LEAS 200500Z 08012G25KT 050V110 9999 FEW050 SCT070 07/02 Q1036 TEMPO RA
Conditions at: LEAS (ASTURIAS/AVILES , ES) observed 0500 UTC 20 January 2020
Temperature: 7.0°C (45°F)
Dewpoint: 2.0°C (36°F) [RH = 70%]
Pressure (altimeter): 30.59 inches Hg (1036.0 mb)
Winds: from the E (80 degrees) at 14 MPH (12 knots; 6.2 m/s)
gusting to 29 MPH (25 knots; 12.9 m/s)
Visibility: 6 or more miles (10+ km)
Ceiling: at least 12,000 feet AGL
Clouds: few clouds at 5000 feet AGL
scattered clouds at 7000 feet AGL
Weather: no significant weather observed at this time

Forecast for: LEAS (ASTURIAS/AVILES , ES)
Text: TAF LEAS 200200Z 2003/2103 08009KT 9999 SCT040 TX10/2015Z TN06/2006Z
Forecast period: 0300 UTC 20 January 2020 to 0300 UTC 21 January 2020
Forecast type: FROM: standard forecast or significant change
Winds: from the E (80 degrees) at 10 MPH (9 knots; 4.6 m/s)
Visibility: 6 or more miles 10+ km)
Ceiling: at least 12,000 feet AGL
Clouds: scattered clouds at 4000 feet AGL
Weather: no significant weather forecast for this period
Text: PROB40
Forecast period: 0300 to 2000 UTC 20 January 2020
Forecast type: TEMPORARY: The following changes expected for less than half the time period
Winds: from the E (90 degrees) at 17 MPH (15 knots; 7.7 m/s)
gusting to 32 MPH (28 knots; 14.4 m/s)
Visibility: missing
Ceiling: unknown
Clouds: missing
Weather: no significant weather forecast for this period

MAPA DE AEROPUERTO

INFORMACIÓN DE PISTA
Pista 11 Longitud 7218 ft Ancho 148 ft
Elevación 399 ft Umbral desplazado 0 ft Rumbo de pista 109
Pista 29 Longitud 7218 ft Ancho 148 ft
Elevación 399 ft Umbral desplazado 0 ft Rumbo de pista 289

FRECUANCIAS DEL AEROPUERTO
Tipo APP Nombre APP Frecuencia 118.15 MHZ
Tipo GND Nombre GND Frecuencia 121.7 MHZ
Tipo TWR Nombre TWR Frecuencia 118.15 MHZ

RADIO AYUDAS DEL AEROPUERTO
Tipo NDB Nombre Asturias Frecuencia 325 KHZ
Tipo NDB Nombre Asturias Frecuencia 387 KHZ
Tipo VOR-DME Nombre Asturias Frecuencia 112400 KHZ